Terminal Aerodrome Forecast
Issued by NWS Flagstaff, AZ

Home | Current Version | Previous Version | Text Only | Print | Product List | Glossary On
Versions: 1 2 3 4 5 6 7 8 9 10 11 12
048
FTUS45 KFGZ 192339
TAFINW
TAF
KINW 192339Z 2000/2024 22011KT P6SM BKN250
     FM201500 18026G36KT P6SM BKN100
     FM201800 19020G40KT P6SM OVC050
      TEMPO 2018/2021 P6SM -SHRA OVC050
     FM202100 22020G40KT P6SM OVC050
      TEMPO 2021/2024 P6SM -SHSN OVC030=

USA.gov is the U.S. government's official web portal to all federal, state and local government web resources and services.